sensor_id;sensor_type;location;lat;lon;timestamp;P1;durP1;ratioP1;P2;durP2;ratioP2
17614;SDS011;8926;49.720;6.576;2023-11-19T00:02:04;0.50;;;0.50;;
17614;SDS011;8926;49.720;6.576;2023-11-19T00:04:29;0.50;;;0.50;;
17614;SDS011;8926;49.720;6.576;2023-11-19T00:06:55;0.30;;;0.30;;
17614;SDS011;8926;49.720;6.576;2023-11-19T00:09:22;0.20;;;0.20;;
17614;SDS011;8926;49.720;6.576;2023-11-19T00:11:47;0.10;;;0.10;;
17614;SDS011;8926;49.720;6.576;2023-11-19T00:14:13;0.30;;;0.30;;
17614;SDS011;8926;49.720;6.576;2023-11-19T00:16:38;0.30;;;0.30;;
17614;SDS011;8926;49.720;6.576;2023-11-19T00:19:04;0.93;;;0.90;;
17614;SDS011;8926;49.720;6.576;2023-11-19T00:21:29;0.80;;;0.80;;
17614;SDS011;8926;49.720;6.576;2023-11-19T00:23:54;1.00;;;0.60;;
17614;SDS011;8926;49.720;6.576;2023-11-19T00:26:19;0.80;;;0.80;;
17614;SDS011;8926;49.720;6.576;2023-11-19T00:28:45;0.70;;;0.70;;
17614;SDS011;8926;49.720;6.576;2023-11-19T00:31:12;1.40;;;1.30;;
17614;SDS011;8926;49.720;6.576;2023-11-19T00:33:38;1.40;;;1.30;;
17614;SDS011;8926;49.720;6.576;2023-11-19T00:36:04;0.90;;;0.90;;
17614;SDS011;8926;49.720;6.576;2023-11-19T00:38:30;0.83;;;0.83;;
17614;SDS011;8926;49.720;6.576;2023-11-19T00:40:55;0.57;;;0.57;;
17614;SDS011;8926;49.720;6.576;2023-11-19T00:43:21;0.60;;;0.60;;
17614;SDS011;8926;49.720;6.576;2023-11-19T00:45:47;1.20;;;0.50;;
17614;SDS011;8926;49.720;6.576;2023-11-19T00:48:15;0.40;;;0.40;;
17614;SDS011;8926;49.720;6.576;2023-11-19T00:50:41;0.47;;;0.30;;
17614;SDS011;8926;49.720;6.576;2023-11-19T00:53:09;0.40;;;0.40;;
17614;SDS011;8926;49.720;6.576;2023-11-19T00:55:34;0.50;;;0.30;;
17614;SDS011;8926;49.720;6.576;2023-11-19T00:57:59;0.20;;;0.20;;
17614;SDS011;8926;49.720;6.576;2023-11-19T01:00:25;0.20;;;0.20;;
17614;SDS011;8926;49.720;6.576;2023-11-19T01:02:52;0.40;;;0.30;;
17614;SDS011;8926;49.720;6.576;2023-11-19T01:05:17;0.23;;;0.23;;
17614;SDS011;8926;49.720;6.576;2023-11-19T01:07:46;0.20;;;0.20;;
17614;SDS011;8926;49.720;6.576;2023-11-19T01:10:12;0.20;;;0.20;;
17614;SDS011;8926;49.720;6.576;2023-11-19T01:12:37;0.63;;;0.17;;
17614;SDS011;8926;49.720;6.576;2023-11-19T01:15:03;0.20;;;0.20;;
17614;SDS011;8926;49.720;6.576;2023-11-19T01:17:29;0.73;;;0.30;;
17614;SDS011;8926;49.720;6.576;2023-11-19T01:19:56;0.40;;;0.40;;
17614;SDS011;8926;49.720;6.576;2023-11-19T01:22:21;0.30;;;0.30;;
17614;SDS011;8926;49.720;6.576;2023-11-19T01:24:47;0.30;;;0.30;;
17614;SDS011;8926;49.720;6.576;2023-11-19T01:27:12;0.30;;;0.30;;
17614;SDS011;8926;49.720;6.576;2023-11-19T01:29:37;0.60;;;0.23;;
17614;SDS011;8926;49.720;6.576;2023-11-19T01:32:03;0.93;;;0.40;;
17614;SDS011;8926;49.720;6.576;2023-11-19T01:34:29;0.40;;;0.40;;
17614;SDS011;8926;49.720;6.576;2023-11-19T01:36:54;0.30;;;0.30;;
17614;SDS011;8926;49.720;6.576;2023-11-19T01:39:19;0.27;;;0.27;;
17614;SDS011;8926;49.720;6.576;2023-11-19T01:41:46;0.10;;;0.10;;
17614;SDS011;8926;49.720;6.576;2023-11-19T01:44:11;0.33;;;0.33;;
17614;SDS011;8926;49.720;6.576;2023-11-19T01:46:43;0.47;;;0.30;;
17614;SDS011;8926;49.720;6.576;2023-11-19T01:49:12;0.30;;;0.30;;
17614;SDS011;8926;49.720;6.576;2023-11-19T01:51:40;0.10;;;0.10;;
17614;SDS011;8926;49.720;6.576;2023-11-19T01:54:07;0.30;;;0.30;;
17614;SDS011;8926;49.720;6.576;2023-11-19T01:56:33;0.23;;;0.23;;
17614;SDS011;8926;49.720;6.576;2023-11-19T01:58:59;0.30;;;0.30;;
17614;SDS011;8926;49.720;6.576;2023-11-19T02:01:25;0.50;;;0.30;;
17614;SDS011;8926;49.720;6.576;2023-11-19T02:03:51;0.30;;;0.30;;
17614;SDS011;8926;49.720;6.576;2023-11-19T02:06:17;0.30;;;0.30;;
17614;SDS011;8926;49.720;6.576;2023-11-19T02:08:42;0.23;;;0.23;;
17614;SDS011;8926;49.720;6.576;2023-11-19T02:11:08;0.27;;;0.27;;
17614;SDS011;8926;49.720;6.576;2023-11-19T02:13:34;0.40;;;0.40;;
17614;SDS011;8926;49.720;6.576;2023-11-19T02:16:01;0.20;;;0.20;;
17614;SDS011;8926;49.720;6.576;2023-11-19T02:18:28;0.33;;;0.33;;
17614;SDS011;8926;49.720;6.576;2023-11-19T02:20:54;0.20;;;0.20;;
17614;SDS011;8926;49.720;6.576;2023-11-19T02:23:21;0.20;;;0.20;;
17614;SDS011;8926;49.720;6.576;2023-11-19T02:25:57;0.30;;;0.30;;
17614;SDS011;8926;49.720;6.576;2023-11-19T02:28:27;0.80;;;0.33;;
17614;SDS011;8926;49.720;6.576;2023-11-19T02:30:53;0.20;;;0.20;;
17614;SDS011;8926;49.720;6.576;2023-11-19T02:33:18;0.30;;;0.30;;
17614;SDS011;8926;49.720;6.576;2023-11-19T02:35:43;0.10;;;0.10;;
17614;SDS011;8926;49.720;6.576;2023-11-19T02:38:09;0.30;;;0.30;;
17614;SDS011;8926;49.720;6.576;2023-11-19T02:40:34;0.40;;;0.40;;
17614;SDS011;8926;49.720;6.576;2023-11-19T02:42:59;0.20;;;0.20;;
17614;SDS011;8926;49.720;6.576;2023-11-19T02:45:25;0.13;;;0.13;;
17614;SDS011;8926;49.720;6.576;2023-11-19T02:47:51;0.20;;;0.20;;
17614;SDS011;8926;49.720;6.576;2023-11-19T02:50:18;0.17;;;0.17;;
17614;SDS011;8926;49.720;6.576;2023-11-19T02:52:50;0.30;;;0.30;;
17614;SDS011;8926;49.720;6.576;2023-11-19T02:55:17;0.20;;;0.20;;
17614;SDS011;8926;49.720;6.576;2023-11-19T02:57:43;0.30;;;0.30;;
17614;SDS011;8926;49.720;6.576;2023-11-19T03:00:13;0.30;;;0.30;;
17614;SDS011;8926;49.720;6.576;2023-11-19T03:02:42;0.47;;;0.47;;
17614;SDS011;8926;49.720;6.576;2023-11-19T03:05:14;0.53;;;0.53;;
17614;SDS011;8926;49.720;6.576;2023-11-19T03:07:41;0.50;;;0.50;;
17614;SDS011;8926;49.720;6.576;2023-11-19T03:10:08;0.50;;;0.50;;
17614;SDS011;8926;49.720;6.576;2023-11-19T03:12:37;0.50;;;0.50;;
17614;SDS011;8926;49.720;6.576;2023-11-19T03:15:03;0.40;;;0.40;;
17614;SDS011;8926;49.720;6.576;2023-11-19T03:17:28;0.30;;;0.30;;
17614;SDS011;8926;49.720;6.576;2023-11-19T03:19:54;0.40;;;0.40;;
17614;SDS011;8926;49.720;6.576;2023-11-19T03:22:19;0.30;;;0.30;;
17614;SDS011;8926;49.720;6.576;2023-11-19T03:24:45;0.50;;;0.50;;
17614;SDS011;8926;49.720;6.576;2023-11-19T03:27:11;0.40;;;0.40;;
17614;SDS011;8926;49.720;6.576;2023-11-19T03:29:36;0.33;;;0.33;;
17614;SDS011;8926;49.720;6.576;2023-11-19T03:32:03;0.83;;;0.83;;
17614;SDS011;8926;49.720;6.576;2023-11-19T03:34:29;0.80;;;0.80;;
17614;SDS011;8926;49.720;6.576;2023-11-19T03:36:54;0.60;;;0.60;;
17614;SDS011;8926;49.720;6.576;2023-11-19T03:39:20;0.60;;;0.60;;
17614;SDS011;8926;49.720;6.576;2023-11-19T03:41:46;0.70;;;0.70;;
17614;SDS011;8926;49.720;6.576;2023-11-19T03:44:13;0.60;;;0.60;;
17614;SDS011;8926;49.720;6.576;2023-11-19T03:46:38;1.13;;;1.00;;
17614;SDS011;8926;49.720;6.576;2023-11-19T03:49:03;0.60;;;0.60;;
17614;SDS011;8926;49.720;6.576;2023-11-19T03:51:29;0.70;;;0.70;;
17614;SDS011;8926;49.720;6.576;2023-11-19T03:53:54;0.50;;;0.50;;
17614;SDS011;8926;49.720;6.576;2023-11-19T03:56:20;0.57;;;0.40;;
17614;SDS011;8926;49.720;6.576;2023-11-19T03:58:46;0.30;;;0.30;;
17614;SDS011;8926;49.720;6.576;2023-11-19T04:01:11;0.50;;;0.50;;
17614;SDS011;8926;49.720;6.576;2023-11-19T04:03:40;0.50;;;0.50;;
17614;SDS011;8926;49.720;6.576;2023-11-19T04:06:06;0.50;;;0.50;;
17614;SDS011;8926;49.720;6.576;2023-11-19T04:08:31;0.50;;;0.50;;
17614;SDS011;8926;49.720;6.576;2023-11-19T04:10:56;0.70;;;0.70;;
17614;SDS011;8926;49.720;6.576;2023-11-19T04:13:22;0.60;;;0.60;;
17614;SDS011;8926;49.720;6.576;2023-11-19T04:15:49;0.80;;;0.80;;
17614;SDS011;8926;49.720;6.576;2023-11-19T04:18:15;0.67;;;0.67;;
17614;SDS011;8926;49.720;6.576;2023-11-19T04:20:41;0.90;;;0.90;;
17614;SDS011;8926;49.720;6.576;2023-11-19T04:23:07;1.13;;;1.00;;
17614;SDS011;8926;49.720;6.576;2023-11-19T04:25:33;0.80;;;0.80;;
17614;SDS011;8926;49.720;6.576;2023-11-19T04:27:58;0.90;;;0.90;;
17614;SDS011;8926;49.720;6.576;2023-11-19T04:30:23;0.93;;;0.83;;
17614;SDS011;8926;49.720;6.576;2023-11-19T04:32:49;1.77;;;1.30;;
17614;SDS011;8926;49.720;6.576;2023-11-19T04:35:14;0.97;;;0.97;;
17614;SDS011;8926;49.720;6.576;2023-11-19T04:37:39;0.83;;;0.83;;
17614;SDS011;8926;49.720;6.576;2023-11-19T04:40:05;0.80;;;0.80;;
17614;SDS011;8926;49.720;6.576;2023-11-19T04:42:30;0.83;;;0.80;;
17614;SDS011;8926;49.720;6.576;2023-11-19T04:44:57;0.70;;;0.70;;
17614;SDS011;8926;49.720;6.576;2023-11-19T04:47:22;0.80;;;0.80;;
17614;SDS011;8926;49.720;6.576;2023-11-19T04:49:47;2.77;;;0.90;;
17614;SDS011;8926;49.720;6.576;2023-11-19T04:52:13;0.87;;;0.87;;
17614;SDS011;8926;49.720;6.576;2023-11-19T04:54:44;2.83;;;1.27;;
17614;SDS011;8926;49.720;6.576;2023-11-19T04:57:09;0.90;;;0.90;;
17614;SDS011;8926;49.720;6.576;2023-11-19T04:59:38;1.00;;;1.00;;
17614;SDS011;8926;49.720;6.576;2023-11-19T05:02:04;0.70;;;0.70;;
17614;SDS011;8926;49.720;6.576;2023-11-19T05:04:29;0.63;;;0.63;;
17614;SDS011;8926;49.720;6.576;2023-11-19T05:06:55;0.50;;;0.50;;
17614;SDS011;8926;49.720;6.576;2023-11-19T05:09:20;0.60;;;0.60;;
17614;SDS011;8926;49.720;6.576;2023-11-19T05:11:46;1.30;;;0.60;;
17614;SDS011;8926;49.720;6.576;2023-11-19T05:14:11;0.47;;;0.47;;
17614;SDS011;8926;49.720;6.576;2023-11-19T05:16:39;0.60;;;0.60;;
17614;SDS011;8926;49.720;6.576;2023-11-19T05:19:04;0.77;;;0.77;;
17614;SDS011;8926;49.720;6.576;2023-11-19T05:21:30;0.60;;;0.60;;
17614;SDS011;8926;49.720;6.576;2023-11-19T05:23:55;0.90;;;0.90;;
17614;SDS011;8926;49.720;6.576;2023-11-19T05:26:22;0.60;;;0.60;;
17614;SDS011;8926;49.720;6.576;2023-11-19T05:28:48;0.70;;;0.70;;
17614;SDS011;8926;49.720;6.576;2023-11-19T05:31:15;0.87;;;0.83;;
17614;SDS011;8926;49.720;6.576;2023-11-19T05:33:41;0.50;;;0.50;;
17614;SDS011;8926;49.720;6.576;2023-11-19T05:36:06;0.40;;;0.40;;
17614;SDS011;8926;49.720;6.576;2023-11-19T05:38:33;0.60;;;0.60;;
17614;SDS011;8926;49.720;6.576;2023-11-19T05:40:58;0.50;;;0.50;;
17614;SDS011;8926;49.720;6.576;2023-11-19T05:43:24;0.93;;;0.80;;
17614;SDS011;8926;49.720;6.576;2023-11-19T05:45:49;0.70;;;0.60;;
17614;SDS011;8926;49.720;6.576;2023-11-19T05:48:14;0.60;;;0.60;;
17614;SDS011;8926;49.720;6.576;2023-11-19T05:50:40;0.50;;;0.50;;
17614;SDS011;8926;49.720;6.576;2023-11-19T05:53:05;0.50;;;0.50;;
17614;SDS011;8926;49.720;6.576;2023-11-19T05:55:34;0.50;;;0.50;;
17614;SDS011;8926;49.720;6.576;2023-11-19T05:58:00;0.60;;;0.60;;
17614;SDS011;8926;49.720;6.576;2023-11-19T06:00:26;0.50;;;0.50;;
17614;SDS011;8926;49.720;6.576;2023-11-19T06:02:51;0.50;;;0.50;;
17614;SDS011;8926;49.720;6.576;2023-11-19T06:05:17;0.90;;;0.90;;
17614;SDS011;8926;49.720;6.576;2023-11-19T06:07:42;1.27;;;0.97;;
17614;SDS011;8926;49.720;6.576;2023-11-19T06:10:07;1.00;;;0.80;;
17614;SDS011;8926;49.720;6.576;2023-11-19T06:12:34;0.50;;;0.50;;
17614;SDS011;8926;49.720;6.576;2023-11-19T06:15:02;0.67;;;0.63;;
17614;SDS011;8926;49.720;6.576;2023-11-19T06:17:29;0.87;;;0.57;;
17614;SDS011;8926;49.720;6.576;2023-11-19T06:19:55;0.40;;;0.40;;
17614;SDS011;8926;49.720;6.576;2023-11-19T06:22:20;0.53;;;0.53;;
17614;SDS011;8926;49.720;6.576;2023-11-19T06:24:46;0.50;;;0.50;;
17614;SDS011;8926;49.720;6.576;2023-11-19T06:27:11;0.73;;;0.53;;
17614;SDS011;8926;49.720;6.576;2023-11-19T06:29:36;0.60;;;0.60;;
17614;SDS011;8926;49.720;6.576;2023-11-19T06:32:02;0.57;;;0.57;;
17614;SDS011;8926;49.720;6.576;2023-11-19T06:34:27;0.60;;;0.60;;
17614;SDS011;8926;49.720;6.576;2023-11-19T06:36:53;0.50;;;0.47;;
17614;SDS011;8926;49.720;6.576;2023-11-19T06:39:18;0.50;;;0.50;;
17614;SDS011;8926;49.720;6.576;2023-11-19T06:41:44;0.50;;;0.50;;
17614;SDS011;8926;49.720;6.576;2023-11-19T06:44:11;0.60;;;0.60;;
17614;SDS011;8926;49.720;6.576;2023-11-19T06:46:36;0.50;;;0.50;;
17614;SDS011;8926;49.720;6.576;2023-11-19T06:49:02;0.67;;;0.67;;
17614;SDS011;8926;49.720;6.576;2023-11-19T06:51:27;0.50;;;0.40;;
17614;SDS011;8926;49.720;6.576;2023-11-19T06:53:52;0.77;;;0.67;;
17614;SDS011;8926;49.720;6.576;2023-11-19T06:56:21;0.50;;;0.50;;
17614;SDS011;8926;49.720;6.576;2023-11-19T06:58:47;0.40;;;0.40;;
17614;SDS011;8926;49.720;6.576;2023-11-19T07:01:13;0.60;;;0.40;;
17614;SDS011;8926;49.720;6.576;2023-11-19T07:03:40;0.50;;;0.50;;
17614;SDS011;8926;49.720;6.576;2023-11-19T07:06:05;0.33;;;0.33;;
17614;SDS011;8926;49.720;6.576;2023-11-19T07:08:30;0.40;;;0.40;;
17614;SDS011;8926;49.720;6.576;2023-11-19T07:10:56;1.27;;;1.00;;
17614;SDS011;8926;49.720;6.576;2023-11-19T07:13:21;1.20;;;0.87;;
17614;SDS011;8926;49.720;6.576;2023-11-19T07:15:46;0.97;;;0.97;;
17614;SDS011;8926;49.720;6.576;2023-11-19T07:18:12;1.37;;;1.27;;
17614;SDS011;8926;49.720;6.576;2023-11-19T07:20:37;0.93;;;0.93;;
17614;SDS011;8926;49.720;6.576;2023-11-19T07:23:03;0.97;;;0.90;;
17614;SDS011;8926;49.720;6.576;2023-11-19T07:25:28;1.47;;;0.70;;
17614;SDS011;8926;49.720;6.576;2023-11-19T07:27:54;0.93;;;0.80;;
17614;SDS011;8926;49.720;6.576;2023-11-19T07:30:19;0.80;;;0.80;;
17614;SDS011;8926;49.720;6.576;2023-11-19T07:32:44;1.27;;;0.90;;
17614;SDS011;8926;49.720;6.576;2023-11-19T07:35:10;0.70;;;0.70;;
17614;SDS011;8926;49.720;6.576;2023-11-19T07:37:35;0.83;;;0.70;;
17614;SDS011;8926;49.720;6.576;2023-11-19T07:40:00;0.70;;;0.70;;
17614;SDS011;8926;49.720;6.576;2023-11-19T07:42:26;0.47;;;0.47;;
17614;SDS011;8926;49.720;6.576;2023-11-19T07:44:51;0.50;;;0.40;;
17614;SDS011;8926;49.720;6.576;2023-11-19T07:47:16;1.47;;;0.70;;
17614;SDS011;8926;49.720;6.576;2023-11-19T07:49:41;0.70;;;0.70;;
17614;SDS011;8926;49.720;6.576;2023-11-19T07:52:09;0.50;;;0.50;;
17614;SDS011;8926;49.720;6.576;2023-11-19T07:54:34;0.73;;;0.50;;
17614;SDS011;8926;49.720;6.576;2023-11-19T07:56:59;0.60;;;0.60;;
17614;SDS011;8926;49.720;6.576;2023-11-19T07:59:25;0.63;;;0.63;;
17614;SDS011;8926;49.720;6.576;2023-11-19T08:01:50;0.83;;;0.70;;
17614;SDS011;8926;49.720;6.576;2023-11-19T08:04:15;0.70;;;0.70;;
17614;SDS011;8926;49.720;6.576;2023-11-19T08:06:41;3.10;;;1.80;;
17614;SDS011;8926;49.720;6.576;2023-11-19T08:09:06;1.50;;;1.40;;
17614;SDS011;8926;49.720;6.576;2023-11-19T08:11:31;1.50;;;1.37;;
17614;SDS011;8926;49.720;6.576;2023-11-19T08:13:58;1.20;;;1.10;;
17614;SDS011;8926;49.720;6.576;2023-11-19T08:16:23;1.10;;;1.00;;
17614;SDS011;8926;49.720;6.576;2023-11-19T08:18:49;0.80;;;0.80;;
17614;SDS011;8926;49.720;6.576;2023-11-19T08:21:14;0.80;;;0.80;;
17614;SDS011;8926;49.720;6.576;2023-11-19T08:23:40;2.70;;;2.50;;
17614;SDS011;8926;49.720;6.576;2023-11-19T08:26:05;3.77;;;3.47;;
17614;SDS011;8926;49.720;6.576;2023-11-19T08:28:31;3.17;;;2.97;;
17614;SDS011;8926;49.720;6.576;2023-11-19T08:30:56;2.40;;;2.20;;
17614;SDS011;8926;49.720;6.576;2023-11-19T08:33:21;2.47;;;2.27;;
17614;SDS011;8926;49.720;6.576;2023-11-19T08:35:47;1.70;;;1.60;;
17614;SDS011;8926;49.720;6.576;2023-11-19T08:38:13;1.73;;;1.63;;
17614;SDS011;8926;49.720;6.576;2023-11-19T08:40:38;1.60;;;1.40;;
17614;SDS011;8926;49.720;6.576;2023-11-19T08:43:03;1.63;;;1.53;;
17614;SDS011;8926;49.720;6.576;2023-11-19T08:45:29;1.60;;;1.50;;
17614;SDS011;8926;49.720;6.576;2023-11-19T08:47:56;1.97;;;1.87;;
17614;SDS011;8926;49.720;6.576;2023-11-19T08:50:21;2.67;;;2.37;;
17614;SDS011;8926;49.720;6.576;2023-11-19T08:52:47;5.23;;;4.73;;
17614;SDS011;8926;49.720;6.576;2023-11-19T08:55:13;15.43;;;11.73;;
17614;SDS011;8926;49.720;6.576;2023-11-19T08:57:38;10.03;;;8.70;;
17614;SDS011;8926;49.720;6.576;2023-11-19T09:00:04;6.33;;;5.70;;
17614;SDS011;8926;49.720;6.576;2023-11-19T09:02:33;5.40;;;4.43;;
17614;SDS011;8926;49.720;6.576;2023-11-19T09:04:59;4.77;;;4.17;;
17614;SDS011;8926;49.720;6.576;2023-11-19T09:07:25;3.40;;;3.10;;
17614;SDS011;8926;49.720;6.576;2023-11-19T09:09:50;3.40;;;3.10;;
17614;SDS011;8926;49.720;6.576;2023-11-19T09:12:15;3.40;;;3.10;;
17614;SDS011;8926;49.720;6.576;2023-11-19T09:14:40;3.00;;;2.60;;
17614;SDS011;8926;49.720;6.576;2023-11-19T09:17:07;2.20;;;2.00;;
17614;SDS011;8926;49.720;6.576;2023-11-19T09:19:32;2.27;;;2.07;;
17614;SDS011;8926;49.720;6.576;2023-11-19T09:21:58;1.40;;;1.30;;
17614;SDS011;8926;49.720;6.576;2023-11-19T09:24:23;1.60;;;1.30;;
17614;SDS011;8926;49.720;6.576;2023-11-19T09:26:49;3.57;;;2.03;;
17614;SDS011;8926;49.720;6.576;2023-11-19T09:29:14;4.57;;;3.63;;
17614;SDS011;8926;49.720;6.576;2023-11-19T09:31:40;3.60;;;3.23;;
17614;SDS011;8926;49.720;6.576;2023-11-19T09:34:05;4.53;;;2.40;;
17614;SDS011;8926;49.720;6.576;2023-11-19T09:36:31;5.03;;;2.40;;
17614;SDS011;8926;49.720;6.576;2023-11-19T09:38:56;4.00;;;2.60;;
17614;SDS011;8926;49.720;6.576;2023-11-19T09:41:21;7.27;;;2.37;;
17614;SDS011;8926;49.720;6.576;2023-11-19T09:43:48;4.10;;;2.77;;
17614;SDS011;8926;49.720;6.576;2023-11-19T09:46:14;4.03;;;2.30;;
17614;SDS011;8926;49.720;6.576;2023-11-19T09:48:40;4.30;;;2.50;;
17614;SDS011;8926;49.720;6.576;2023-11-19T09:51:06;2.60;;;1.77;;
17614;SDS011;8926;49.720;6.576;2023-11-19T09:53:33;2.23;;;1.70;;
17614;SDS011;8926;49.720;6.576;2023-11-19T09:55:59;2.43;;;1.37;;
17614;SDS011;8926;49.720;6.576;2023-11-19T09:58:27;3.13;;;1.97;;
17614;SDS011;8926;49.720;6.576;2023-11-19T10:00:53;5.40;;;2.20;;
17614;SDS011;8926;49.720;6.576;2023-11-19T10:03:18;3.90;;;2.37;;
17614;SDS011;8926;49.720;6.576;2023-11-19T10:05:44;6.17;;;2.47;;
17614;SDS011;8926;49.720;6.576;2023-11-19T10:08:09;5.33;;;2.33;;
17614;SDS011;8926;49.720;6.576;2023-11-19T10:10:36;5.37;;;2.73;;
17614;SDS011;8926;49.720;6.576;2023-11-19T10:13:01;4.83;;;2.40;;
17614;SDS011;8926;49.720;6.576;2023-11-19T10:15:27;4.20;;;2.13;;
17614;SDS011;8926;49.720;6.576;2023-11-19T10:17:55;4.70;;;1.90;;
17614;SDS011;8926;49.720;6.576;2023-11-19T10:20:20;3.87;;;2.10;;
17614;SDS011;8926;49.720;6.576;2023-11-19T10:22:46;4.43;;;2.00;;
17614;SDS011;8926;49.720;6.576;2023-11-19T10:27:52;5.07;;;2.37;;
17614;SDS011;8926;49.720;6.576;2023-11-19T10:30:20;4.73;;;2.37;;
17614;SDS011;8926;49.720;6.576;2023-11-19T10:33:04;5.97;;;2.43;;
17614;SDS011;8926;49.720;6.576;2023-11-19T10:35:34;8.87;;;2.73;;
17614;SDS011;8926;49.720;6.576;2023-11-19T10:38:22;3.67;;;2.27;;
17614;SDS011;8926;49.720;6.576;2023-11-19T10:40:49;3.97;;;2.17;;
17614;SDS011;8926;49.720;6.576;2023-11-19T10:43:16;7.13;;;2.33;;
17614;SDS011;8926;49.720;6.576;2023-11-19T10:45:42;4.27;;;2.03;;
17614;SDS011;8926;49.720;6.576;2023-11-19T10:48:07;4.23;;;1.63;;
17614;SDS011;8926;49.720;6.576;2023-11-19T10:50:36;9.10;;;2.43;;
17614;SDS011;8926;49.720;6.576;2023-11-19T10:53:03;6.57;;;2.20;;
17614;SDS011;8926;49.720;6.576;2023-11-19T10:55:30;5.47;;;2.10;;
17614;SDS011;8926;49.720;6.576;2023-11-19T10:58:03;3.47;;;2.00;;
17614;SDS011;8926;49.720;6.576;2023-11-19T11:00:30;5.00;;;2.27;;
17614;SDS011;8926;49.720;6.576;2023-11-19T11:03:02;4.07;;;2.10;;
17614;SDS011;8926;49.720;6.576;2023-11-19T11:05:35;5.67;;;2.07;;
17614;SDS011;8926;49.720;6.576;2023-11-19T11:08:03;5.63;;;2.40;;
17614;SDS011;8926;49.720;6.576;2023-11-19T11:10:31;4.37;;;1.73;;
17614;SDS011;8926;49.720;6.576;2023-11-19T11:13:01;3.43;;;1.93;;
17614;SDS011;8926;49.720;6.576;2023-11-19T11:15:28;4.93;;;1.90;;
17614;SDS011;8926;49.720;6.576;2023-11-19T11:17:57;5.67;;;2.00;;
17614;SDS011;8926;49.720;6.576;2023-11-19T11:20:29;2.87;;;1.77;;
17614;SDS011;8926;49.720;6.576;2023-11-19T11:31:08;5.53;;;3.20;;
17614;SDS011;8926;49.720;6.576;2023-11-19T11:33:57;5.63;;;2.60;;
17614;SDS011;8926;49.720;6.576;2023-11-19T11:36:36;8.63;;;3.13;;
17614;SDS011;8926;49.720;6.576;2023-11-19T11:39:14;7.13;;;3.57;;
17614;SDS011;8926;49.720;6.576;2023-11-19T11:41:41;6.43;;;3.10;;
17614;SDS011;8926;49.720;6.576;2023-11-19T11:44:06;4.73;;;2.70;;
17614;SDS011;8926;49.720;6.576;2023-11-19T11:48:58;4.77;;;2.53;;
17614;SDS011;8926;49.720;6.576;2023-11-19T11:57:00;5.37;;;2.00;;
17614;SDS011;8926;49.720;6.576;2023-11-19T11:59:27;4.87;;;2.00;;
17614;SDS011;8926;49.720;6.576;2023-11-19T12:02:01;5.33;;;2.60;;
17614;SDS011;8926;49.720;6.576;2023-11-19T12:04:28;7.27;;;2.63;;
17614;SDS011;8926;49.720;6.576;2023-11-19T12:07:06;6.20;;;2.47;;
17614;SDS011;8926;49.720;6.576;2023-11-19T12:09:42;4.67;;;1.90;;
17614;SDS011;8926;49.720;6.576;2023-11-19T12:12:21;5.10;;;2.27;;
17614;SDS011;8926;49.720;6.576;2023-11-19T12:20:00;10.70;;;2.93;;
17614;SDS011;8926;49.720;6.576;2023-11-19T12:22:26;6.07;;;2.57;;
17614;SDS011;8926;49.720;6.576;2023-11-19T12:24:52;8.00;;;2.70;;
17614;SDS011;8926;49.720;6.576;2023-11-19T12:27:19;6.63;;;2.60;;
17614;SDS011;8926;49.720;6.576;2023-11-19T12:29:47;9.87;;;3.10;;
17614;SDS011;8926;49.720;6.576;2023-11-19T12:32:12;7.13;;;2.63;;
17614;SDS011;8926;49.720;6.576;2023-11-19T12:34:38;8.87;;;2.67;;
17614;SDS011;8926;49.720;6.576;2023-11-19T12:37:03;7.77;;;3.00;;
17614;SDS011;8926;49.720;6.576;2023-11-19T12:39:30;11.03;;;2.87;;
17614;SDS011;8926;49.720;6.576;2023-11-19T12:41:55;4.80;;;2.07;;
17614;SDS011;8926;49.720;6.576;2023-11-19T12:44:21;7.00;;;2.60;;
17614;SDS011;8926;49.720;6.576;2023-11-19T12:46:58;5.90;;;2.30;;
17614;SDS011;8926;49.720;6.576;2023-11-19T12:49:28;8.67;;;2.30;;
17614;SDS011;8926;49.720;6.576;2023-11-19T12:51:53;7.90;;;2.50;;
17614;SDS011;8926;49.720;6.576;2023-11-19T12:54:18;7.00;;;2.03;;
17614;SDS011;8926;49.720;6.576;2023-11-19T12:56:53;5.70;;;2.10;;
17614;SDS011;8926;49.720;6.576;2023-11-19T12:59:18;4.87;;;2.13;;
17614;SDS011;8926;49.720;6.576;2023-11-19T13:01:59;8.07;;;2.10;;
17614;SDS011;8926;49.720;6.576;2023-11-19T13:04:31;6.93;;;1.93;;
17614;SDS011;8926;49.720;6.576;2023-11-19T13:07:00;4.43;;;2.40;;
17614;SDS011;8926;49.720;6.576;2023-11-19T13:09:29;5.23;;;2.07;;
17614;SDS011;8926;49.720;6.576;2023-11-19T13:11:55;3.93;;;1.80;;
17614;SDS011;8926;49.720;6.576;2023-11-19T13:14:21;5.67;;;2.20;;
17614;SDS011;8926;49.720;6.576;2023-11-19T13:16:48;6.17;;;2.30;;
17614;SDS011;8926;49.720;6.576;2023-11-19T13:19:14;5.67;;;2.43;;
17614;SDS011;8926;49.720;6.576;2023-11-19T13:21:44;3.77;;;1.80;;
17614;SDS011;8926;49.720;6.576;2023-11-19T13:24:12;4.33;;;1.97;;
17614;SDS011;8926;49.720;6.576;2023-11-19T13:26:37;4.80;;;2.00;;
17614;SDS011;8926;49.720;6.576;2023-11-19T13:29:03;7.10;;;2.70;;
17614;SDS011;8926;49.720;6.576;2023-11-19T13:31:29;7.50;;;2.37;;
17614;SDS011;8926;49.720;6.576;2023-11-19T13:33:54;3.47;;;1.80;;
17614;SDS011;8926;49.720;6.576;2023-11-19T13:36:19;4.10;;;2.10;;
17614;SDS011;8926;49.720;6.576;2023-11-19T13:38:45;5.37;;;1.90;;
17614;SDS011;8926;49.720;6.576;2023-11-19T13:41:11;6.50;;;2.00;;
17614;SDS011;8926;49.720;6.576;2023-11-19T13:43:38;5.90;;;2.17;;
17614;SDS011;8926;49.720;6.576;2023-11-19T13:46:04;6.93;;;2.03;;
17614;SDS011;8926;49.720;6.576;2023-11-19T13:48:30;4.80;;;1.80;;
17614;SDS011;8926;49.720;6.576;2023-11-19T13:50:55;4.37;;;1.47;;
17614;SDS011;8926;49.720;6.576;2023-11-19T13:53:21;4.30;;;1.70;;
17614;SDS011;8926;49.720;6.576;2023-11-19T13:55:48;2.30;;;1.53;;
17614;SDS011;8926;49.720;6.576;2023-11-19T13:58:14;4.17;;;2.20;;
17614;SDS011;8926;49.720;6.576;2023-11-19T14:00:39;4.87;;;2.53;;
17614;SDS011;8926;49.720;6.576;2023-11-19T14:03:08;4.50;;;1.80;;
17614;SDS011;8926;49.720;6.576;2023-11-19T14:05:35;4.37;;;2.10;;
17614;SDS011;8926;49.720;6.576;2023-11-19T14:08:00;3.70;;;1.50;;
17614;SDS011;8926;49.720;6.576;2023-11-19T14:10:26;5.30;;;1.90;;
17614;SDS011;8926;49.720;6.576;2023-11-19T14:12:51;2.63;;;1.40;;
17614;SDS011;8926;49.720;6.576;2023-11-19T14:15:17;1.63;;;0.90;;
17614;SDS011;8926;49.720;6.576;2023-11-19T14:17:42;2.60;;;1.57;;
17614;SDS011;8926;49.720;6.576;2023-11-19T14:20:08;2.20;;;1.50;;
17614;SDS011;8926;49.720;6.576;2023-11-19T14:22:41;2.77;;;1.50;;
17614;SDS011;8926;49.720;6.576;2023-11-19T14:25:08;4.07;;;1.80;;
17614;SDS011;8926;49.720;6.576;2023-11-19T14:27:38;6.57;;;1.77;;
17614;SDS011;8926;49.720;6.576;2023-11-19T14:30:07;3.13;;;1.30;;
17614;SDS011;8926;49.720;6.576;2023-11-19T14:32:36;2.40;;;1.40;;
17614;SDS011;8926;49.720;6.576;2023-11-19T14:35:02;5.40;;;2.27;;
17614;SDS011;8926;49.720;6.576;2023-11-19T14:37:28;6.70;;;2.17;;
17614;SDS011;8926;49.720;6.576;2023-11-19T14:39:54;6.63;;;2.43;;
17614;SDS011;8926;49.720;6.576;2023-11-19T14:42:19;7.47;;;3.00;;
17614;SDS011;8926;49.720;6.576;2023-11-19T14:44:44;6.47;;;2.43;;
17614;SDS011;8926;49.720;6.576;2023-11-19T14:47:10;6.73;;;2.53;;
17614;SDS011;8926;49.720;6.576;2023-11-19T14:49:35;5.17;;;2.13;;
17614;SDS011;8926;49.720;6.576;2023-11-19T14:52:01;5.43;;;2.37;;
17614;SDS011;8926;49.720;6.576;2023-11-19T14:54:28;2.50;;;1.20;;
17614;SDS011;8926;49.720;6.576;2023-11-19T14:56:53;4.07;;;1.93;;
17614;SDS011;8926;49.720;6.576;2023-11-19T14:59:18;3.83;;;1.90;;
17614;SDS011;8926;49.720;6.576;2023-11-19T15:01:47;2.60;;;1.60;;
17614;SDS011;8926;49.720;6.576;2023-11-19T15:04:12;11.00;;;2.30;;
17614;SDS011;8926;49.720;6.576;2023-11-19T15:06:37;5.43;;;2.17;;
17614;SDS011;8926;49.720;6.576;2023-11-19T15:09:03;3.77;;;1.87;;
17614;SDS011;8926;49.720;6.576;2023-11-19T15:11:29;5.33;;;2.10;;
17614;SDS011;8926;49.720;6.576;2023-11-19T15:13:54;4.10;;;2.27;;
17614;SDS011;8926;49.720;6.576;2023-11-19T15:16:20;6.20;;;2.40;;
17614;SDS011;8926;49.720;6.576;2023-11-19T15:18:50;4.37;;;2.10;;
17614;SDS011;8926;49.720;6.576;2023-11-19T15:21:17;2.73;;;1.40;;